sensor_id;sensor_type;location;lat;lon;timestamp;P1;durP1;ratioP1;P2;durP2;ratioP2
78013;SDS011;67222;50.182;8.734;2023-03-23T05:32:37;1.55;;;0.70;;
78013;SDS011;67222;50.182;8.734;2023-03-23T05:35:02;2.37;;;1.20;;
78013;SDS011;67222;50.182;8.734;2023-03-23T05:37:28;3.05;;;1.00;;
78013;SDS011;67222;50.182;8.734;2023-03-23T05:42:23;2.35;;;0.82;;
78013;SDS011;67222;50.182;8.734;2023-03-23T05:44:49;2.63;;;1.48;;
78013;SDS011;67222;50.182;8.734;2023-03-23T05:47:15;2.53;;;1.00;;
78013;SDS011;67222;50.182;8.734;2023-03-23T05:49:41;2.30;;;1.00;;
78013;SDS011;67222;50.182;8.734;2023-03-23T05:52:06;2.08;;;1.00;;
78013;SDS011;67222;50.182;8.734;2023-03-23T05:54:32;2.22;;;1.50;;
78013;SDS011;67222;50.182;8.734;2023-03-23T05:56:59;2.78;;;1.05;;
78013;SDS011;67222;50.182;8.734;2023-03-23T05:59:24;1.65;;;0.98;;
78013;SDS011;67222;50.182;8.734;2023-03-23T06:01:50;2.27;;;1.00;;
78013;SDS011;67222;50.182;8.734;2023-03-23T06:04:16;3.33;;;1.02;;
78013;SDS011;67222;50.182;8.734;2023-03-23T06:06:42;3.07;;;1.00;;
78013;SDS011;67222;50.182;8.734;2023-03-23T06:09:08;1.60;;;0.73;;
78013;SDS011;67222;50.182;8.734;2023-03-23T06:11:34;1.80;;;0.98;;
78013;SDS011;67222;50.182;8.734;2023-03-23T06:14:00;3.33;;;1.05;;
78013;SDS011;67222;50.182;8.734;2023-03-23T06:16:26;2.92;;;0.95;;
78013;SDS011;67222;50.182;8.734;2023-03-23T06:18:51;1.93;;;1.00;;
78013;SDS011;67222;50.182;8.734;2023-03-23T06:21:16;3.38;;;1.00;;
78013;SDS011;67222;50.182;8.734;2023-03-23T06:23:43;3.17;;;1.20;;
78013;SDS011;67222;50.182;8.734;2023-03-23T06:26:09;2.42;;;1.00;;
78013;SDS011;67222;50.182;8.734;2023-03-23T06:28:39;2.28;;;0.93;;
78013;SDS011;67222;50.182;8.734;2023-03-23T06:31:05;3.38;;;1.20;;
78013;SDS011;67222;50.182;8.734;2023-03-23T06:33:33;2.13;;;0.82;;
78013;SDS011;67222;50.182;8.734;2023-03-23T06:36:00;2.13;;;1.13;;
78013;SDS011;67222;50.182;8.734;2023-03-23T06:38:26;3.25;;;1.27;;
78013;SDS011;67222;50.182;8.734;2023-03-23T06:40:52;2.20;;;0.95;;
78013;SDS011;67222;50.182;8.734;2023-03-23T06:43:18;1.98;;;1.00;;
78013;SDS011;67222;50.182;8.734;2023-03-23T06:45:43;3.05;;;0.90;;
78013;SDS011;67222;50.182;8.734;2023-03-23T06:48:09;2.28;;;1.00;;
78013;SDS011;67222;50.182;8.734;2023-03-23T06:50:34;1.60;;;0.93;;
78013;SDS011;67222;50.182;8.734;2023-03-23T06:52:59;1.63;;;0.90;;
78013;SDS011;67222;50.182;8.734;2023-03-23T06:55:25;3.97;;;1.10;;
78013;SDS011;67222;50.182;8.734;2023-03-23T06:57:50;2.67;;;1.15;;
78013;SDS011;67222;50.182;8.734;2023-03-23T07:00:15;1.70;;;0.77;;
78013;SDS011;67222;50.182;8.734;2023-03-23T07:02:41;2.08;;;0.80;;
78013;SDS011;67222;50.182;8.734;2023-03-23T07:05:08;1.65;;;0.90;;
78013;SDS011;67222;50.182;8.734;2023-03-23T07:07:35;1.95;;;0.93;;
78013;SDS011;67222;50.182;8.734;2023-03-23T07:10:01;2.30;;;1.08;;
78013;SDS011;67222;50.182;8.734;2023-03-23T07:12:28;1.90;;;1.02;;
78013;SDS011;67222;50.182;8.734;2023-03-23T07:14:53;2.25;;;1.05;;
78013;SDS011;67222;50.182;8.734;2023-03-23T07:17:19;2.53;;;1.02;;
78013;SDS011;67222;50.182;8.734;2023-03-23T07:19:45;1.92;;;1.10;;
78013;SDS011;67222;50.182;8.734;2023-03-23T07:22:11;1.92;;;1.02;;
78013;SDS011;67222;50.182;8.734;2023-03-23T07:24:36;2.47;;;1.10;;
78013;SDS011;67222;50.182;8.734;2023-03-23T07:27:01;2.33;;;1.10;;
78013;SDS011;67222;50.182;8.734;2023-03-23T07:29:27;1.85;;;0.90;;
78013;SDS011;67222;50.182;8.734;2023-03-23T07:31:53;2.60;;;1.27;;
78013;SDS011;67222;50.182;8.734;2023-03-23T07:34:19;2.42;;;1.20;;
78013;SDS011;67222;50.182;8.734;2023-03-23T07:36:45;2.72;;;1.20;;
78013;SDS011;67222;50.182;8.734;2023-03-23T07:39:11;3.25;;;1.15;;
78013;SDS011;67222;50.182;8.734;2023-03-23T07:41:37;2.65;;;1.38;;
78013;SDS011;67222;50.182;8.734;2023-03-23T07:44:02;3.20;;;1.30;;
78013;SDS011;67222;50.182;8.734;2023-03-23T07:46:28;3.20;;;1.27;;
78013;SDS011;67222;50.182;8.734;2023-03-23T07:48:53;2.73;;;1.30;;
78013;SDS011;67222;50.182;8.734;2023-03-23T07:51:19;2.88;;;1.00;;
78013;SDS011;67222;50.182;8.734;2023-03-23T07:53:44;3.33;;;1.25;;
78013;SDS011;67222;50.182;8.734;2023-03-23T07:56:11;2.78;;;1.13;;
78013;SDS011;67222;50.182;8.734;2023-03-23T07:58:39;1.80;;;1.05;;
78013;SDS011;67222;50.182;8.734;2023-03-23T08:01:05;3.00;;;1.50;;
78013;SDS011;67222;50.182;8.734;2023-03-23T08:03:31;3.22;;;1.55;;
78013;SDS011;67222;50.182;8.734;2023-03-23T08:05:57;2.90;;;1.20;;
78013;SDS011;67222;50.182;8.734;2023-03-23T08:08:24;3.05;;;1.02;;
78013;SDS011;67222;50.182;8.734;2023-03-23T08:10:49;2.00;;;1.00;;
78013;SDS011;67222;50.182;8.734;2023-03-23T08:13:15;4.18;;;1.17;;
78013;SDS011;67222;50.182;8.734;2023-03-23T08:15:40;2.78;;;1.10;;
78013;SDS011;67222;50.182;8.734;2023-03-23T08:18:06;3.00;;;1.20;;
78013;SDS011;67222;50.182;8.734;2023-03-23T08:20:31;3.33;;;1.05;;
78013;SDS011;67222;50.182;8.734;2023-03-23T08:22:57;3.00;;;1.10;;
78013;SDS011;67222;50.182;8.734;2023-03-23T08:25:23;2.67;;;1.15;;
78013;SDS011;67222;50.182;8.734;2023-03-23T08:27:51;2.60;;;1.23;;
78013;SDS011;67222;50.182;8.734;2023-03-23T08:30:17;2.58;;;1.15;;
78013;SDS011;67222;50.182;8.734;2023-03-23T08:32:51;3.35;;;1.10;;
78013;SDS011;67222;50.182;8.734;2023-03-23T08:35:18;2.22;;;0.93;;
78013;SDS011;67222;50.182;8.734;2023-03-23T08:37:44;2.80;;;1.08;;
78013;SDS011;67222;50.182;8.734;2023-03-23T08:40:11;2.97;;;1.00;;
78013;SDS011;67222;50.182;8.734;2023-03-23T08:42:39;2.33;;;1.10;;
78013;SDS011;67222;50.182;8.734;2023-03-23T08:45:06;2.38;;;0.95;;
78013;SDS011;67222;50.182;8.734;2023-03-23T08:47:33;2.70;;;1.38;;
78013;SDS011;67222;50.182;8.734;2023-03-23T08:50:00;2.60;;;1.10;;
78013;SDS011;67222;50.182;8.734;2023-03-23T08:52:26;2.25;;;1.02;;
78013;SDS011;67222;50.182;8.734;2023-03-23T08:54:53;2.03;;;1.13;;
78013;SDS011;67222;50.182;8.734;2023-03-23T08:57:18;1.70;;;0.90;;
78013;SDS011;67222;50.182;8.734;2023-03-23T08:59:44;1.95;;;1.00;;
78013;SDS011;67222;50.182;8.734;2023-03-23T09:02:10;2.05;;;1.05;;
78013;SDS011;67222;50.182;8.734;2023-03-23T09:04:37;2.15;;;1.10;;
78013;SDS011;67222;50.182;8.734;2023-03-23T09:07:03;2.97;;;1.00;;
78013;SDS011;67222;50.182;8.734;2023-03-23T09:09:28;2.03;;;1.00;;
78013;SDS011;67222;50.182;8.734;2023-03-23T09:11:54;2.10;;;0.85;;
78013;SDS011;67222;50.182;8.734;2023-03-23T09:14:19;2.20;;;1.00;;
78013;SDS011;67222;50.182;8.734;2023-03-23T09:16:45;3.17;;;1.10;;
78013;SDS011;67222;50.182;8.734;2023-03-23T09:19:10;3.27;;;1.07;;
78013;SDS011;67222;50.182;8.734;2023-03-23T09:21:36;2.25;;;1.10;;
78013;SDS011;67222;50.182;8.734;2023-03-23T09:24:01;2.10;;;1.10;;
78013;SDS011;67222;50.182;8.734;2023-03-23T09:26:27;3.05;;;0.80;;
78013;SDS011;67222;50.182;8.734;2023-03-23T09:28:52;2.70;;;1.10;;
78013;SDS011;67222;50.182;8.734;2023-03-23T09:31:18;2.88;;;1.20;;
78013;SDS011;67222;50.182;8.734;2023-03-23T09:33:47;2.03;;;1.10;;
78013;SDS011;67222;50.182;8.734;2023-03-23T09:36:16;2.92;;;1.02;;
78013;SDS011;67222;50.182;8.734;2023-03-23T09:38:42;3.33;;;1.02;;
78013;SDS011;67222;50.182;8.734;2023-03-23T09:46:35;2.47;;;1.00;;
78013;SDS011;67222;50.182;8.734;2023-03-23T09:49:23;2.65;;;1.10;;
78013;SDS011;67222;50.182;8.734;2023-03-23T09:52:02;2.78;;;1.10;;
78013;SDS011;67222;50.182;8.734;2023-03-23T09:54:35;2.33;;;0.95;;
78013;SDS011;67222;50.182;8.734;2023-03-23T09:57:11;2.45;;;1.00;;
78013;SDS011;67222;50.182;8.734;2023-03-23T10:02:52;2.95;;;1.20;;
78013;SDS011;67222;50.182;8.734;2023-03-23T10:05:32;3.25;;;1.10;;
78013;SDS011;67222;50.182;8.734;2023-03-23T10:08:00;2.15;;;0.90;;
78013;SDS011;67222;50.182;8.734;2023-03-23T10:16:26;2.75;;;0.88;;
78013;SDS011;67222;50.182;8.734;2023-03-23T10:19:05;1.73;;;0.82;;
78013;SDS011;67222;50.182;8.734;2023-03-23T10:21:41;1.63;;;0.80;;
78013;SDS011;67222;50.182;8.734;2023-03-23T10:24:14;3.10;;;0.85;;
78013;SDS011;67222;50.182;8.734;2023-03-23T10:26:47;2.15;;;1.10;;
78013;SDS011;67222;50.182;8.734;2023-03-23T10:29:20;2.28;;;0.98;;
78013;SDS011;67222;50.182;8.734;2023-03-23T10:32:04;3.28;;;0.95;;
78013;SDS011;67222;50.182;8.734;2023-03-23T10:37:30;2.42;;;0.93;;
78013;SDS011;67222;50.182;8.734;2023-03-23T10:40:01;2.05;;;1.02;;
78013;SDS011;67222;50.182;8.734;2023-03-23T10:42:32;1.65;;;0.80;;
78013;SDS011;67222;50.182;8.734;2023-03-23T10:45:00;2.67;;;0.88;;
78013;SDS011;67222;50.182;8.734;2023-03-23T10:47:36;1.08;;;0.50;;
78013;SDS011;67222;50.182;8.734;2023-03-23T10:50:05;2.58;;;0.80;;
78013;SDS011;67222;50.182;8.734;2023-03-23T10:57:38;1.17;;;0.60;;
78013;SDS011;67222;50.182;8.734;2023-03-23T11:02:40;2.03;;;0.60;;
78013;SDS011;67222;50.182;8.734;2023-03-23T11:05:13;2.40;;;0.82;;
78013;SDS011;67222;50.182;8.734;2023-03-23T11:07:47;1.95;;;0.75;;
78013;SDS011;67222;50.182;8.734;2023-03-23T11:10:20;1.77;;;0.77;;
78013;SDS011;67222;50.182;8.734;2023-03-23T11:12:48;1.30;;;0.68;;
78013;SDS011;67222;50.182;8.734;2023-03-23T11:15:16;1.55;;;0.70;;
78013;SDS011;67222;50.182;8.734;2023-03-23T11:17:55;1.63;;;0.90;;
78013;SDS011;67222;50.182;8.734;2023-03-23T11:20:25;2.03;;;0.80;;
78013;SDS011;67222;50.182;8.734;2023-03-23T11:22:53;2.25;;;0.90;;
78013;SDS011;67222;50.182;8.734;2023-03-23T11:25:19;2.03;;;0.82;;
78013;SDS011;67222;50.182;8.734;2023-03-23T11:27:46;2.33;;;1.00;;
78013;SDS011;67222;50.182;8.734;2023-03-23T11:30:22;2.03;;;0.98;;
78013;SDS011;67222;50.182;8.734;2023-03-23T11:32:52;1.90;;;1.00;;
78013;SDS011;67222;50.182;8.734;2023-03-23T11:35:23;2.42;;;1.23;;
78013;SDS011;67222;50.182;8.734;2023-03-23T11:37:53;2.15;;;0.90;;
78013;SDS011;67222;50.182;8.734;2023-03-23T11:40:22;4.20;;;1.30;;
78013;SDS011;67222;50.182;8.734;2023-03-23T11:50:43;2.78;;;0.90;;
78013;SDS011;67222;50.182;8.734;2023-03-23T11:58:56;2.45;;;0.90;;
78013;SDS011;67222;50.182;8.734;2023-03-23T12:04:20;1.27;;;0.63;;
78013;SDS011;67222;50.182;8.734;2023-03-23T12:12:31;1.63;;;0.70;;
78013;SDS011;67222;50.182;8.734;2023-03-23T12:23:23;1.35;;;0.60;;
78013;SDS011;67222;50.182;8.734;2023-03-23T12:26:00;1.42;;;0.60;;
78013;SDS011;67222;50.182;8.734;2023-03-23T12:28:47;1.27;;;0.55;;
78013;SDS011;67222;50.182;8.734;2023-03-23T12:31:44;1.98;;;0.55;;
78013;SDS011;67222;50.182;8.734;2023-03-23T12:34:27;1.08;;;0.45;;
78013;SDS011;67222;50.182;8.734;2023-03-23T12:37:31;1.38;;;0.40;;
78013;SDS011;67222;50.182;8.734;2023-03-23T12:48:26;2.63;;;0.77;;
78013;SDS011;67222;50.182;8.734;2023-03-23T12:59:15;1.48;;;0.70;;
78013;SDS011;67222;50.182;8.734;2023-03-23T13:02:22;1.30;;;0.70;;
78013;SDS011;67222;50.182;8.734;2023-03-23T13:05:41;1.25;;;0.60;;
78013;SDS011;67222;50.182;8.734;2023-03-23T13:07:53;1.02;;;0.50;;
78013;SDS011;67222;50.182;8.734;2023-03-23T13:10:28;1.35;;;0.60;;
78013;SDS011;67222;50.182;8.734;2023-03-23T13:12:58;1.42;;;0.63;;
78013;SDS011;67222;50.182;8.734;2023-03-23T13:15:31;2.13;;;0.60;;
78013;SDS011;67222;50.182;8.734;2023-03-23T13:21:19;1.70;;;0.70;;
78013;SDS011;67222;50.182;8.734;2023-03-23T13:23:52;1.23;;;0.60;;
78013;SDS011;67222;50.182;8.734;2023-03-23T13:26:22;1.42;;;0.50;;
78013;SDS011;67222;50.182;8.734;2023-03-23T13:28:54;2.70;;;0.60;;
78013;SDS011;67222;50.182;8.734;2023-03-23T13:31:34;2.00;;;0.55;;
78013;SDS011;67222;50.182;8.734;2023-03-23T13:37:04;1.45;;;0.60;;
78013;SDS011;67222;50.182;8.734;2023-03-23T13:42:05;1.10;;;0.50;;
78013;SDS011;67222;50.182;8.734;2023-03-23T13:47:27;1.98;;;0.63;;
78013;SDS011;67222;50.182;8.734;2023-03-23T13:50:01;1.27;;;0.60;;
78013;SDS011;67222;50.182;8.734;2023-03-23T13:57:58;1.80;;;0.77;;
78013;SDS011;67222;50.182;8.734;2023-03-23T14:02:58;3.53;;;0.80;;
78013;SDS011;67222;50.182;8.734;2023-03-23T14:05:44;1.38;;;0.63;;
78013;SDS011;67222;50.182;8.734;2023-03-23T14:08:22;2.08;;;0.60;;
78013;SDS011;67222;50.182;8.734;2023-03-23T14:11:01;1.15;;;0.65;;
78013;SDS011;67222;50.182;8.734;2023-03-23T14:13:41;1.13;;;0.50;;
78013;SDS011;67222;50.182;8.734;2023-03-23T14:16:22;1.83;;;0.70;;
78013;SDS011;67222;50.182;8.734;2023-03-23T14:18:59;0.88;;;0.60;;
78013;SDS011;67222;50.182;8.734;2023-03-23T14:21:36;1.20;;;0.60;;
78013;SDS011;67222;50.182;8.734;2023-03-23T14:24:09;1.65;;;0.50;;
78013;SDS011;67222;50.182;8.734;2023-03-23T14:26:36;1.70;;;0.50;;
78013;SDS011;67222;50.182;8.734;2023-03-23T14:29:03;1.58;;;0.60;;
78013;SDS011;67222;50.182;8.734;2023-03-23T14:31:30;1.42;;;0.60;;
78013;SDS011;67222;50.182;8.734;2023-03-23T14:34:00;1.33;;;0.60;;
78013;SDS011;67222;50.182;8.734;2023-03-23T14:36:30;1.45;;;0.70;;
78013;SDS011;67222;50.182;8.734;2023-03-23T14:39:06;1.15;;;0.60;;
78013;SDS011;67222;50.182;8.734;2023-03-23T14:41:38;0.70;;;0.40;;
78013;SDS011;67222;50.182;8.734;2023-03-23T14:44:05;1.35;;;0.90;;
78013;SDS011;67222;50.182;8.734;2023-03-23T14:46:34;1.70;;;0.60;;
78013;SDS011;67222;50.182;8.734;2023-03-23T14:49:02;1.60;;;0.65;;
78013;SDS011;67222;50.182;8.734;2023-03-23T14:51:29;1.58;;;0.80;;
78013;SDS011;67222;50.182;8.734;2023-03-23T14:53:55;2.78;;;0.93;;
78013;SDS011;67222;50.182;8.734;2023-03-23T14:56:22;2.05;;;0.43;;
78013;SDS011;67222;50.182;8.734;2023-03-23T14:58:52;2.40;;;0.70;;
78013;SDS011;67222;50.182;8.734;2023-03-23T15:01:27;1.77;;;0.90;;
78013;SDS011;67222;50.182;8.734;2023-03-23T15:04:15;2.42;;;0.70;;
78013;SDS011;67222;50.182;8.734;2023-03-23T15:06:48;2.08;;;0.65;;
78013;SDS011;67222;50.182;8.734;2023-03-23T15:09:18;1.85;;;0.60;;
78013;SDS011;67222;50.182;8.734;2023-03-23T15:12:20;2.00;;;0.60;;
78013;SDS011;67222;50.182;8.734;2023-03-23T15:14:51;1.58;;;0.50;;
78013;SDS011;67222;50.182;8.734;2023-03-23T15:17:19;0.80;;;0.50;;
78013;SDS011;67222;50.182;8.734;2023-03-23T15:19:47;1.83;;;0.60;;
78013;SDS011;67222;50.182;8.734;2023-03-23T15:27:42;1.52;;;0.60;;
78013;SDS011;67222;50.182;8.734;2023-03-23T15:30:13;1.90;;;0.90;;
78013;SDS011;67222;50.182;8.734;2023-03-23T15:32:40;3.63;;;1.70;;
78013;SDS011;67222;50.182;8.734;2023-03-23T15:35:17;1.73;;;0.80;;
78013;SDS011;67222;50.182;8.734;2023-03-23T15:37:47;1.85;;;0.70;;
78013;SDS011;67222;50.182;8.734;2023-03-23T15:40:16;1.95;;;0.98;;
78013;SDS011;67222;50.182;8.734;2023-03-23T15:47:45;2.10;;;0.90;;
78013;SDS011;67222;50.182;8.734;2023-03-23T15:52:53;1.60;;;0.75;;
78013;SDS011;67222;50.182;8.734;2023-03-23T15:57:52;3.00;;;1.40;;
78013;SDS011;67222;50.182;8.734;2023-03-23T16:00:20;0.93;;;0.52;;
78013;SDS011;67222;50.182;8.734;2023-03-23T16:02:48;1.67;;;0.57;;
78013;SDS011;67222;50.182;8.734;2023-03-23T16:05:16;0.98;;;0.57;;
78013;SDS011;67222;50.182;8.734;2023-03-23T16:07:42;1.95;;;0.47;;
78013;SDS011;67222;50.182;8.734;2023-03-23T16:10:13;1.20;;;0.50;;
78013;SDS011;67222;50.182;8.734;2023-03-23T16:12:43;1.13;;;0.47;;
78013;SDS011;67222;50.182;8.734;2023-03-23T16:15:09;1.70;;;0.47;;
78013;SDS011;67222;50.182;8.734;2023-03-23T16:17:35;2.80;;;0.60;;
78013;SDS011;67222;50.182;8.734;2023-03-23T16:20:00;1.40;;;0.50;;
78013;SDS011;67222;50.182;8.734;2023-03-23T16:22:27;1.85;;;0.60;;
78013;SDS011;67222;50.182;8.734;2023-03-23T16:24:52;1.27;;;0.60;;
78013;SDS011;67222;50.182;8.734;2023-03-23T16:27:18;2.92;;;0.70;;
78013;SDS011;67222;50.182;8.734;2023-03-23T16:29:45;1.23;;;0.50;;
78013;SDS011;67222;50.182;8.734;2023-03-23T16:32:10;3.10;;;0.77;;
78013;SDS011;67222;50.182;8.734;2023-03-23T16:34:36;1.47;;;0.60;;
78013;SDS011;67222;50.182;8.734;2023-03-23T16:37:02;1.52;;;0.70;;
78013;SDS011;67222;50.182;8.734;2023-03-23T16:39:28;2.53;;;0.70;;
78013;SDS011;67222;50.182;8.734;2023-03-23T16:41:53;3.17;;;0.70;;
78013;SDS011;67222;50.182;8.734;2023-03-23T16:44:18;1.93;;;0.80;;
78013;SDS011;67222;50.182;8.734;2023-03-23T16:46:44;1.35;;;0.80;;
78013;SDS011;67222;50.182;8.734;2023-03-23T16:49:09;2.55;;;0.63;;
78013;SDS011;67222;50.182;8.734;2023-03-23T16:51:35;1.70;;;0.70;;
78013;SDS011;67222;50.182;8.734;2023-03-23T16:54:00;1.50;;;0.80;;
78013;SDS011;67222;50.182;8.734;2023-03-23T16:56:25;2.13;;;0.93;;
78013;SDS011;67222;50.182;8.734;2023-03-23T16:58:51;2.53;;;0.80;;
78013;SDS011;67222;50.182;8.734;2023-03-23T17:01:16;2.73;;;1.43;;
78013;SDS011;67222;50.182;8.734;2023-03-23T17:03:42;1.40;;;0.80;;
78013;SDS011;67222;50.182;8.734;2023-03-23T17:06:07;2.03;;;0.80;;
78013;SDS011;67222;50.182;8.734;2023-03-23T17:08:33;2.03;;;1.17;;
78013;SDS011;67222;50.182;8.734;2023-03-23T17:10:59;2.05;;;0.90;;
78013;SDS011;67222;50.182;8.734;2023-03-23T17:13:25;3.15;;;1.17;;
78013;SDS011;67222;50.182;8.734;2023-03-23T17:15:52;2.85;;;1.23;;
78013;SDS011;67222;50.182;8.734;2023-03-23T17:18:20;4.32;;;1.70;;
78013;SDS011;67222;50.182;8.734;2023-03-23T17:20:45;2.38;;;0.90;;
78013;SDS011;67222;50.182;8.734;2023-03-23T17:23:10;3.43;;;1.40;;
78013;SDS011;67222;50.182;8.734;2023-03-23T17:25:36;5.03;;;2.60;;
78013;SDS011;67222;50.182;8.734;2023-03-23T17:28:02;2.42;;;0.90;;
78013;SDS011;67222;50.182;8.734;2023-03-23T17:30:27;2.15;;;1.00;;
78013;SDS011;67222;50.182;8.734;2023-03-23T17:32:53;4.10;;;1.40;;
78013;SDS011;67222;50.182;8.734;2023-03-23T17:35:18;3.13;;;1.55;;
78013;SDS011;67222;50.182;8.734;2023-03-23T17:37:44;2.28;;;1.15;;
78013;SDS011;67222;50.182;8.734;2023-03-23T17:40:10;3.15;;;1.30;;
78013;SDS011;67222;50.182;8.734;2023-03-23T17:42:36;2.67;;;1.10;;
78013;SDS011;67222;50.182;8.734;2023-03-23T17:45:03;2.72;;;1.52;;
78013;SDS011;67222;50.182;8.734;2023-03-23T17:47:30;2.08;;;0.85;;
78013;SDS011;67222;50.182;8.734;2023-03-23T17:49:55;2.35;;;1.10;;
78013;SDS011;67222;50.182;8.734;2023-03-23T17:52:21;2.40;;;0.85;;
78013;SDS011;67222;50.182;8.734;2023-03-23T17:54:47;2.60;;;1.30;;
78013;SDS011;67222;50.182;8.734;2023-03-23T17:57:12;4.63;;;2.03;;
78013;SDS011;67222;50.182;8.734;2023-03-23T17:59:37;3.20;;;1.33;;
78013;SDS011;67222;50.182;8.734;2023-03-23T18:02:03;6.40;;;2.45;;
78013;SDS011;67222;50.182;8.734;2023-03-23T18:04:28;3.05;;;1.60;;
78013;SDS011;67222;50.182;8.734;2023-03-23T18:06:54;2.83;;;1.10;;
78013;SDS011;67222;50.182;8.734;2023-03-23T18:09:21;4.28;;;2.05;;
78013;SDS011;67222;50.182;8.734;2023-03-23T18:11:47;3.13;;;1.40;;
78013;SDS011;67222;50.182;8.734;2023-03-23T18:14:12;2.87;;;1.50;;
78013;SDS011;67222;50.182;8.734;2023-03-23T18:16:37;4.63;;;2.10;;
78013;SDS011;67222;50.182;8.734;2023-03-23T18:19:03;4.88;;;2.00;;
78013;SDS011;67222;50.182;8.734;2023-03-23T18:21:28;3.57;;;1.50;;
78013;SDS011;67222;50.182;8.734;2023-03-23T18:23:53;2.60;;;1.20;;
78013;SDS011;67222;50.182;8.734;2023-03-23T18:26:19;2.28;;;1.08;;
78013;SDS011;67222;50.182;8.734;2023-03-23T18:28:45;2.50;;;0.82;;
78013;SDS011;67222;50.182;8.734;2023-03-23T18:31:13;1.85;;;0.90;;
78013;SDS011;67222;50.182;8.734;2023-03-23T18:33:41;3.50;;;1.75;;
78013;SDS011;67222;50.182;8.734;2023-03-23T18:36:10;2.90;;;1.00;;
78013;SDS011;67222;50.182;8.734;2023-03-23T18:38:36;2.25;;;0.80;;
78013;SDS011;67222;50.182;8.734;2023-03-23T18:41:05;2.38;;;1.08;;
78013;SDS011;67222;50.182;8.734;2023-03-23T18:43:31;2.70;;;0.90;;
78013;SDS011;67222;50.182;8.734;2023-03-23T18:45:56;1.83;;;1.00;;
78013;SDS011;67222;50.182;8.734;2023-03-23T18:48:22;2.05;;;1.15;;
78013;SDS011;67222;50.182;8.734;2023-03-23T18:50:49;2.50;;;0.90;;
78013;SDS011;67222;50.182;8.734;2023-03-23T18:53:16;2.38;;;1.30;;
78013;SDS011;67222;50.182;8.734;2023-03-23T18:55:42;2.60;;;1.30;;
78013;SDS011;67222;50.182;8.734;2023-03-23T18:58:09;2.65;;;1.20;;
78013;SDS011;67222;50.182;8.734;2023-03-23T19:00:37;2.95;;;1.40;;
78013;SDS011;67222;50.182;8.734;2023-03-23T19:03:03;3.75;;;1.65;;
78013;SDS011;67222;50.182;8.734;2023-03-23T19:05:30;2.80;;;1.33;;
78013;SDS011;67222;50.182;8.734;2023-03-23T19:07:56;2.45;;;1.33;;
78013;SDS011;67222;50.182;8.734;2023-03-23T19:10:22;2.20;;;0.80;;
78013;SDS011;67222;50.182;8.734;2023-03-23T19:12:48;2.90;;;1.10;;
78013;SDS011;67222;50.182;8.734;2023-03-23T19:15:14;1.77;;;0.98;;
78013;SDS011;67222;50.182;8.734;2023-03-23T19:17:40;3.08;;;1.20;;
78013;SDS011;67222;50.182;8.734;2023-03-23T19:20:06;2.30;;;1.10;;
78013;SDS011;67222;50.182;8.734;2023-03-23T19:22:37;2.22;;;0.98;;
78013;SDS011;67222;50.182;8.734;2023-03-23T19:25:04;2.40;;;1.00;;
78013;SDS011;67222;50.182;8.734;2023-03-23T19:27:31;3.45;;;1.30;;
78013;SDS011;67222;50.182;8.734;2023-03-23T19:29:57;3.60;;;1.35;;
78013;SDS011;67222;50.182;8.734;2023-03-23T19:32:22;2.00;;;0.90;;
78013;SDS011;67222;50.182;8.734;2023-03-23T19:34:47;2.67;;;1.20;;
78013;SDS011;67222;50.182;8.734;2023-03-23T19:37:13;2.87;;;0.93;;
78013;SDS011;67222;50.182;8.734;2023-03-23T19:39:39;2.65;;;0.93;;
78013;SDS011;67222;50.182;8.734;2023-03-23T19:42:05;2.35;;;0.90;;
78013;SDS011;67222;50.182;8.734;2023-03-23T19:44:31;2.53;;;1.10;;
78013;SDS011;67222;50.182;8.734;2023-03-23T19:46:57;2.33;;;1.15;;
78013;SDS011;67222;50.182;8.734;2023-03-23T19:49:22;3.13;;;1.30;;
78013;SDS011;67222;50.182;8.734;2023-03-23T19:51:48;1.92;;;1.00;;
78013;SDS011;67222;50.182;8.734;2023-03-23T19:54:13;2.43;;;1.17;;
78013;SDS011;67222;50.182;8.734;2023-03-23T19:56:39;2.78;;;1.27;;
78013;SDS011;67222;50.182;8.734;2023-03-23T19:59:04;5.03;;;2.58;;
78013;SDS011;67222;50.182;8.734;2023-03-23T20:01:32;3.25;;;1.25;;
78013;SDS011;67222;50.182;8.734;2023-03-23T20:03:57;3.13;;;1.30;;
78013;SDS011;67222;50.182;8.734;2023-03-23T20:06:23;2.70;;;1.20;;
78013;SDS011;67222;50.182;8.734;2023-03-23T20:08:48;2.27;;;1.23;;
78013;SDS011;67222;50.182;8.734;2023-03-23T20:11:14;2.22;;;1.25;;
78013;SDS011;67222;50.182;8.734;2023-03-23T20:13:42;2.83;;;1.30;;
78013;SDS011;67222;50.182;8.734;2023-03-23T20:16:09;3.20;;;1.50;;
78013;SDS011;67222;50.182;8.734;2023-03-23T20:18:35;4.32;;;1.20;;
78013;SDS011;67222;50.182;8.734;2023-03-23T20:21:19;3.10;;;1.27;;
78013;SDS011;67222;50.182;8.734;2023-03-23T20:23:46;5.38;;;1.25;;
78013;SDS011;67222;50.182;8.734;2023-03-23T20:26:15;3.65;;;1.27;;
78013;SDS011;67222;50.182;8.734;2023-03-23T20:28:42;2.70;;;1.20;;
78013;SDS011;67222;50.182;8.734;2023-03-23T20:31:10;1.98;;;1.13;;
78013;SDS011;67222;50.182;8.734;2023-03-23T20:33:41;2.83;;;1.25;;
78013;SDS011;67222;50.182;8.734;2023-03-23T20:36:06;3.05;;;1.23;;
78013;SDS011;67222;50.182;8.734;2023-03-23T20:38:33;2.60;;;1.25;;
78013;SDS011;67222;50.182;8.734;2023-03-23T20:41:01;2.58;;;1.30;;
78013;SDS011;67222;50.182;8.734;2023-03-23T20:43:29;2.10;;;1.05;;
78013;SDS011;67222;50.182;8.734;2023-03-23T20:45:56;3.00;;;1.23;;
78013;SDS011;67222;50.182;8.734;2023-03-23T20:48:25;2.47;;;1.20;;
78013;SDS011;67222;50.182;8.734;2023-03-23T20:50:55;2.92;;;1.45;;
78013;SDS011;67222;50.182;8.734;2023-03-23T20:53:21;3.40;;;1.35;;
78013;SDS011;67222;50.182;8.734;2023-03-23T20:55:48;2.50;;;1.42;;
78013;SDS011;67222;50.182;8.734;2023-03-23T20:58:15;2.90;;;1.25;;
78013;SDS011;67222;50.182;8.734;2023-03-23T21:00:41;2.22;;;1.17;;
78013;SDS011;67222;50.182;8.734;2023-03-23T21:03:09;4.50;;;1.33;;
78013;SDS011;67222;50.182;8.734;2023-03-23T21:05:36;2.40;;;1.25;;
78013;SDS011;67222;50.182;8.734;2023-03-23T21:08:05;2.45;;;1.27;;
78013;SDS011;67222;50.182;8.734;2023-03-23T21:10:31;4.13;;;1.40;;
78013;SDS011;67222;50.182;8.734;2023-03-23T21:12:57;3.95;;;1.55;;
78013;SDS011;67222;50.182;8.734;2023-03-23T21:15:22;2.88;;;1.30;;
78013;SDS011;67222;50.182;8.734;2023-03-23T21:17:47;2.50;;;1.50;;
78013;SDS011;67222;50.182;8.734;2023-03-23T21:20:13;3.17;;;1.50;;
78013;SDS011;67222;50.182;8.734;2023-03-23T21:22:38;3.00;;;1.70;;
78013;SDS011;67222;50.182;8.734;2023-03-23T21:25:04;3.63;;;1.60;;
78013;SDS011;67222;50.182;8.734;2023-03-23T21:27:30;3.33;;;1.85;;
78013;SDS011;67222;50.182;8.734;2023-03-23T21:29:58;3.90;;;1.53;;
78013;SDS011;67222;50.182;8.734;2023-03-23T21:32:24;3.08;;;1.45;;
78013;SDS011;67222;50.182;8.734;2023-03-23T21:34:50;3.55;;;1.90;;
78013;SDS011;67222;50.182;8.734;2023-03-23T21:37:16;3.75;;;1.85;;
78013;SDS011;67222;50.182;8.734;2023-03-23T21:39:42;6.35;;;2.97;;
78013;SDS011;67222;50.182;8.734;2023-03-23T21:42:07;4.03;;;2.05;;
78013;SDS011;67222;50.182;8.734;2023-03-23T21:44:32;4.13;;;1.83;;
78013;SDS011;67222;50.182;8.734;2023-03-23T21:46:58;3.33;;;1.75;;
78013;SDS011;67222;50.182;8.734;2023-03-23T21:49:25;3.55;;;1.50;;
78013;SDS011;67222;50.182;8.734;2023-03-23T21:51:52;3.95;;;1.92;;
78013;SDS011;67222;50.182;8.734;2023-03-23T21:54:18;3.25;;;2.15;;
78013;SDS011;67222;50.182;8.734;2023-03-23T21:56:44;3.92;;;2.40;;
78013;SDS011;67222;50.182;8.734;2023-03-23T21:59:10;4.18;;;2.03;;
78013;SDS011;67222;50.182;8.734;2023-03-23T22:01:35;5.03;;;2.13;;
78013;SDS011;67222;50.182;8.734;2023-03-23T22:04:01;4.27;;;2.10;;
78013;SDS011;67222;50.182;8.734;2023-03-23T22:06:26;3.42;;;1.80;;
78013;SDS011;67222;50.182;8.734;2023-03-23T22:08:52;3.00;;;1.92;;
78013;SDS011;67222;50.182;8.734;2023-03-23T22:11:19;6.53;;;2.30;;
78013;SDS011;67222;50.182;8.734;2023-03-23T22:13:47;3.63;;;1.90;;
78013;SDS011;67222;50.182;8.734;2023-03-23T22:16:14;4.32;;;2.33;;